Time;durP1;ratioP1;P1;durP2;ratioP2;P2;SDS_P1;SDS_P2;PMS_P1;PMS_P2;Temp;Humidity;BMP_temperature;BMP_pressure;BME280_temperature;BME280_humidity;BME280_pressure;Samples;Min_cycle;Max_cycle;Signal;HPM_P1;HPM_P2
2023/03/10 00:01:27;;;;;;;;;3.67;3.00;;;;;-147.17;100.00;-15917.19;5113004;27;51168;-52
2023/03/10 00:03:53;;;;;;;;;4.00;3.00;;;;;-147.17;100.00;-15917.19;5114810;27;51201;-52
2023/03/10 00:06:22;;;;;;;;;2.00;1.67;;;;;-147.17;100.00;-15917.19;5112776;27;52616;-52
2023/03/10 00:08:48;;;;;;;;;6.67;3.67;;;;;-147.17;100.00;-15917.19;5121124;27;51015;-52
2023/03/10 00:11:15;;;;;;;;;4.33;4.00;;;;;-147.17;100.00;-15917.19;5114670;27;51000;-52
2023/03/10 00:13:40;;;;;;;;;6.00;3.67;;;;;-147.17;100.00;-15917.19;5113956;27;51373;-52
2023/03/10 00:16:07;;;;;;;;;5.00;2.67;;;;;-147.17;100.00;-15917.19;5108498;27;51795;-52
2023/03/10 00:18:33;;;;;;;;;6.00;4.33;;;;;-147.17;100.00;-15917.19;5115469;27;51022;-53
2023/03/10 00:20:58;;;;;;;;;3.33;2.67;;;;;-147.17;100.00;-15917.19;5115250;27;51138;-52
2023/03/10 00:23:24;;;;;;;;;5.33;2.00;;;;;-147.17;100.00;-15917.19;5095500;27;51327;-53
2023/03/10 00:25:57;;;;;;;;;6.33;3.33;;;;;-147.17;100.00;-15917.19;5113216;27;51168;-53
2023/03/10 00:28:24;;;;;;;;;5.33;4.00;;;;;-147.17;100.00;-15917.19;5112673;27;51105;-53
2023/03/10 00:31:01;;;;;;;;;6.00;4.33;;;;;-147.17;100.00;-15917.19;5111094;27;51122;-53
2023/03/10 00:33:26;;;;;;;;;4.00;3.00;;;;;-147.17;100.00;-15917.19;5113115;27;51306;-53
2023/03/10 00:36:06;;;;;;;;;5.33;4.00;;;;;-147.17;100.00;-15917.19;5113485;27;52203;-51
2023/03/10 00:38:32;;;;;;;;;3.33;3.00;;;;;-147.17;100.00;-15917.19;5095944;27;51163;-53
2023/03/10 00:41:06;;;;;;;;;2.00;0.00;;;;;-147.17;100.00;-15917.19;5114698;27;51024;-52
2023/03/10 00:43:32;;;;;;;;;2.00;1.00;;;;;-147.17;100.00;-15917.19;5108967;27;51247;-50
2023/03/10 00:45:57;;;;;;;;;3.00;2.67;;;;;-147.17;100.00;-15917.19;5108526;27;51316;-53
2023/03/10 00:48:23;;;;;;;;;4.67;2.67;;;;;-147.17;100.00;-15917.19;5110414;27;51441;-52
2023/03/10 00:50:48;;;;;;;;;2.00;1.00;;;;;-147.17;100.00;-15917.19;5086717;27;51802;-53
2023/03/10 00:53:14;;;;;;;;;3.33;2.00;;;;;-147.17;100.00;-15917.19;5111747;27;51317;-50
2023/03/10 00:55:40;;;;;;;;;2.00;1.00;;;;;-147.17;100.00;-15917.19;5111805;27;51829;-52
2023/03/10 00:58:05;;;;;;;;;4.33;2.00;;;;;-147.17;100.00;-15917.19;5112064;27;51204;-53
2023/03/10 01:00:31;;;;;;;;;4.33;3.00;;;;;-147.17;100.00;-15917.19;5114487;27;51083;-52
2023/03/10 01:02:57;;;;;;;;;2.33;2.00;;;;;-147.17;100.00;-15917.19;5107614;27;51207;-52
2023/03/10 01:05:23;;;;;;;;;4.00;4.00;;;;;-147.17;100.00;-15917.19;5092825;27;51238;-52
2023/03/10 01:07:48;;;;;;;;;5.33;4.00;;;;;-147.17;100.00;-15917.19;5122028;27;51137;-54
2023/03/10 01:10:13;;;;;;;;;6.67;5.33;;;;;-147.17;100.00;-15917.19;5114130;27;51087;-51
2023/03/10 01:12:39;;;;;;;;;3.33;3.33;;;;;-147.17;100.00;-15917.19;5111716;27;51174;-51
2023/03/10 01:15:05;;;;;;;;;3.00;2.67;;;;;-147.17;100.00;-15917.19;5110593;27;51737;-54
2023/03/10 01:17:30;;;;;;;;;2.00;1.67;;;;;-147.17;100.00;-15917.19;5111889;27;51121;-50
2023/03/10 01:19:56;;;;;;;;;3.00;2.00;;;;;-147.17;100.00;-15917.19;5108552;27;51575;-51
2023/03/10 01:22:21;;;;;;;;;1.00;0.67;;;;;-147.17;100.00;-15917.19;5112762;27;51301;-54
2023/03/10 01:24:46;;;;;;;;;0.00;0.00;;;;;-147.17;100.00;-15917.19;5112475;27;51264;-53
2023/03/10 01:27:12;;;;;;;;;2.00;1.67;;;;;-147.17;100.00;-15917.19;5104318;27;51066;-52
2023/03/10 01:29:37;;;;;;;;;2.00;1.67;;;;;-147.17;100.00;-15917.19;5106478;27;52316;-52
2023/03/10 01:32:02;;;;;;;;;2.00;2.00;;;;;-147.17;100.00;-15917.19;5112356;27;51221;-53
2023/03/10 01:34:28;;;;;;;;;1.33;0.00;;;;;-147.17;100.00;-15917.19;5095564;27;52448;-52
2023/03/10 01:36:53;;;;;;;;;2.00;1.00;;;;;-147.17;100.00;-15917.19;5108749;27;51010;-50
2023/03/10 01:39:19;;;;;;;;;1.00;1.00;;;;;-147.17;100.00;-15917.19;5114011;27;51261;-52
2023/03/10 01:41:44;;;;;;;;;3.00;2.00;;;;;-147.17;100.00;-15917.19;5110743;27;51208;-52
2023/03/10 01:44:17;;;;;;;;;1.00;1.00;;;;;-147.17;100.00;-15917.19;5103529;27;52749;-51
2023/03/10 01:46:46;;;;;;;;;3.00;1.00;;;;;-147.17;100.00;-15917.19;5100988;27;51344;-53
2023/03/10 01:49:33;;;;;;;;;1.33;0.33;;;;;-147.17;100.00;-15917.19;5108552;27;51040;-52
2023/03/10 01:52:01;;;;;;;;;2.00;2.00;;;;;-147.17;100.00;-15917.19;5108548;27;50976;-51
2023/03/10 01:54:43;;;;;;;;;4.33;3.00;;;;;-147.17;100.00;-15917.19;5101083;27;51420;-53
2023/03/10 01:57:10;;;;;;;;;1.00;1.00;;;;;-147.17;100.00;-15917.19;5110584;27;51092;-52
2023/03/10 01:59:35;;;;;;;;;2.67;2.00;;;;;-147.17;100.00;-15917.19;5112868;27;51134;-52
2023/03/10 02:02:02;;;;;;;;;2.00;1.00;;;;;-147.17;100.00;-15917.19;5107808;27;51449;-54
2023/03/10 02:04:39;;;;;;;;;2.67;2.00;;;;;-147.17;100.00;-15917.19;5110660;27;52466;-53
2023/03/10 02:07:06;;;;;;;;;2.33;1.33;;;;;-147.17;100.00;-15917.19;5110760;27;51273;-53
2023/03/10 02:09:36;;;;;;;;;1.00;1.00;;;;;-147.17;100.00;-15917.19;5112293;27;50940;-52
2023/03/10 02:12:03;;;;;;;;;4.00;1.00;;;;;-147.17;100.00;-15917.19;5107188;27;51378;-52
2023/03/10 02:14:30;;;;;;;;;3.67;2.00;;;;;-147.17;100.00;-15917.19;5112841;27;52688;-53
2023/03/10 02:16:56;;;;;;;;;1.33;1.33;;;;;-147.17;100.00;-15917.19;5110714;27;51219;-53
2023/03/10 02:19:58;;;;;;;;;2.67;0.67;;;;;-147.17;100.00;-15917.19;5110081;27;51028;-51
2023/03/10 02:22:23;;;;;;;;;2.00;1.00;;;;;-147.17;100.00;-15917.19;5103092;27;51577;-53
2023/03/10 02:24:55;;;;;;;;;1.00;0.00;;;;;-147.17;100.00;-15917.19;5110468;27;51034;-51
2023/03/10 02:27:26;;;;;;;;;2.00;1.00;;;;;-147.17;100.00;-15917.19;5109742;27;51211;-53
2023/03/10 02:30:08;;;;;;;;;2.00;1.00;;;;;-147.17;100.00;-15917.19;5112088;27;50987;-52
2023/03/10 02:32:38;;;;;;;;;3.00;1.67;;;;;-147.17;100.00;-15917.19;5095169;27;51385;-53
2023/03/10 02:35:04;;;;;;;;;3.00;2.00;;;;;-147.17;100.00;-15917.19;5112281;27;51721;-51
2023/03/10 02:37:31;;;;;;;;;4.00;2.33;;;;;-147.17;100.00;-15917.19;5109988;27;51230;-52
2023/03/10 02:39:57;;;;;;;;;2.67;2.00;;;;;-147.17;100.00;-15917.19;5088367;27;51233;-53
2023/03/10 02:42:28;;;;;;;;;1.00;1.00;;;;;-147.17;100.00;-15917.19;5110875;27;51323;-53
2023/03/10 02:44:54;;;;;;;;;2.33;2.00;;;;;-147.17;100.00;-15917.19;5110482;27;51084;-51
2023/03/10 02:47:19;;;;;;;;;3.33;2.00;;;;;-147.17;100.00;-15917.19;5112634;27;51188;-53
2023/03/10 02:49:45;;;;;;;;;3.67;2.00;;;;;-147.17;100.00;-15917.19;5111349;27;51094;-58
2023/03/10 02:52:40;;;;;;;;;1.33;1.00;;;;;-147.17;100.00;-15917.19;5089894;27;51394;-53
2023/03/10 02:55:05;;;;;;;;;1.00;1.00;;;;;-147.17;100.00;-15917.19;5102190;27;51199;-51
2023/03/10 02:57:31;;;;;;;;;1.00;1.00;;;;;-147.17;100.00;-15917.19;5059886;27;51092;-52
2023/03/10 02:59:56;;;;;;;;;3.67;0.67;;;;;-147.17;100.00;-15917.19;5108319;27;51049;-50
2023/03/10 03:02:21;;;;;;;;;1.00;1.00;;;;;-147.17;100.00;-15917.19;5107732;27;51261;-51
2023/03/10 03:04:47;;;;;;;;;1.00;0.67;;;;;-147.17;100.00;-15917.19;5103798;27;56022;-53
2023/03/10 03:07:12;;;;;;;;;1.00;1.00;;;;;-147.17;100.00;-15917.19;5111924;27;51039;-52
2023/03/10 03:09:38;;;;;;;;;0.00;0.00;;;;;-147.17;100.00;-15917.19;5102301;27;51262;-50
2023/03/10 03:12:03;;;;;;;;;1.67;1.00;;;;;-147.17;100.00;-15917.19;5107319;27;51133;-53
2023/03/10 03:14:28;;;;;;;;;1.00;0.67;;;;;-147.17;100.00;-15917.19;5079045;27;53781;-52
2023/03/10 03:16:54;;;;;;;;;1.00;1.00;;;;;-147.17;100.00;-15917.19;5106298;27;51255;-51
2023/03/10 03:19:19;;;;;;;;;0.00;0.00;;;;;-147.17;100.00;-15917.19;5110550;27;51079;-53
2023/03/10 03:21:48;;;;;;;;;2.00;1.00;;;;;-147.17;100.00;-15917.19;5110332;27;51136;-53
2023/03/10 03:24:16;;;;;;;;;0.33;0.00;;;;;-147.17;100.00;-15917.19;5088125;27;52859;-53
2023/03/10 03:26:42;;;;;;;;;1.00;0.00;;;;;-147.17;100.00;-15917.19;5107530;27;51316;-52
2023/03/10 03:29:10;;;;;;;;;1.00;0.00;;;;;-147.17;100.00;-15917.19;5111358;27;51169;-53
2023/03/10 03:31:36;;;;;;;;;0.00;0.00;;;;;-147.17;100.00;-15917.19;5110659;27;50990;-51
2023/03/10 03:34:03;;;;;;;;;0.33;0.00;;;;;-147.17;100.00;-15917.19;5100488;27;52032;-52
2023/03/10 03:36:28;;;;;;;;;1.00;0.00;;;;;-147.17;100.00;-15917.19;5101258;27;50991;-53
2023/03/10 03:38:54;;;;;;;;;5.00;1.00;;;;;-147.17;100.00;-15917.19;5108185;27;51173;-52
2023/03/10 03:41:19;;;;;;;;;2.00;2.00;;;;;-147.17;100.00;-15917.19;5111226;27;51220;-51
2023/03/10 03:43:44;;;;;;;;;1.00;0.00;;;;;-147.17;100.00;-15917.19;5105608;27;53331;-52
2023/03/10 03:46:10;;;;;;;;;3.67;2.00;;;;;-147.17;100.00;-15917.19;5109683;27;52273;-53
2023/03/10 03:48:35;;;;;;;;;1.67;1.00;;;;;-147.17;100.00;-15917.19;5109587;27;51662;-51
2023/03/10 03:51:01;;;;;;;;;1.00;0.33;;;;;-147.17;100.00;-15917.19;5110464;27;51046;-50
2023/03/10 03:53:27;;;;;;;;;2.00;1.00;;;;;-147.17;100.00;-15917.19;5111335;27;51832;-52
2023/03/10 03:55:52;;;;;;;;;2.67;1.00;;;;;-147.17;100.00;-15917.19;5108412;27;51372;-53
2023/03/10 03:58:18;;;;;;;;;1.00;0.00;;;;;-147.17;100.00;-15917.19;5105418;27;51385;-52
2023/03/10 04:00:43;;;;;;;;;1.00;1.00;;;;;-147.17;100.00;-15917.19;5107568;27;51282;-52
2023/03/10 04:03:09;;;;;;;;;1.33;1.00;;;;;-147.17;100.00;-15917.19;5109169;27;51213;-55
2023/03/10 04:05:34;;;;;;;;;1.67;1.00;;;;;-147.17;100.00;-15917.19;5110415;27;51120;-53
2023/03/10 04:07:59;;;;;;;;;1.67;1.00;;;;;-147.17;100.00;-15917.19;5111602;27;51757;-54
2023/03/10 04:10:27;;;;;;;;;2.00;2.00;;;;;-147.17;100.00;-15917.19;5111600;27;51299;-53
2023/03/10 04:12:53;;;;;;;;;3.67;3.33;;;;;-147.17;100.00;-15917.19;5110749;27;52302;-52
2023/03/10 04:15:18;;;;;;;;;3.33;1.33;;;;;-147.17;100.00;-15917.19;5109876;27;51083;-53
2023/03/10 04:17:43;;;;;;;;;3.33;2.00;;;;;-147.17;100.00;-15917.19;5109253;27;52638;-52
2023/03/10 04:20:12;;;;;;;;;2.33;2.00;;;;;-147.17;100.00;-15917.19;5109283;27;50882;-56
2023/03/10 04:22:37;;;;;;;;;2.67;2.00;;;;;-147.17;100.00;-15917.19;5091225;27;52619;-54
2023/03/10 04:25:04;;;;;;;;;2.00;1.00;;;;;-147.17;100.00;-15917.19;5112607;27;50980;-54
2023/03/10 04:27:30;;;;;;;;;3.33;1.00;;;;;-147.17;100.00;-15917.19;5113413;27;51463;-53
2023/03/10 04:29:55;;;;;;;;;3.00;1.67;;;;;-147.17;100.00;-15917.19;5114444;27;51012;-52
2023/03/10 04:32:21;;;;;;;;;2.00;1.00;;;;;-147.17;100.00;-15917.19;5112721;27;52789;-52
2023/03/10 04:34:46;;;;;;;;;9.00;6.00;;;;;-147.17;100.00;-15917.19;5114348;27;50963;-52
2023/03/10 04:37:12;;;;;;;;;3.50;2.50;;;;;-147.17;100.00;-15917.19;5112032;27;51579;-54
2023/03/10 04:39:38;;;;;;;;;4.67;3.67;;;;;-147.17;100.00;-15917.19;5114136;27;51137;-51
2023/03/10 04:42:04;;;;;;;;;3.00;1.67;;;;;-147.17;100.00;-15917.19;5115485;27;51174;-52
2023/03/10 04:44:29;;;;;;;;;4.00;2.00;;;;;-147.17;100.00;-15917.19;5112459;27;50818;-54
2023/03/10 04:46:54;;;;;;;;;1.33;1.00;;;;;-147.17;100.00;-15917.19;5113471;27;51305;-53
2023/03/10 04:49:20;;;;;;;;;1.00;0.00;;;;;-147.17;100.00;-15917.19;5109692;27;51193;-53
2023/03/10 04:51:45;;;;;;;;;1.00;1.00;;;;;-147.17;100.00;-15917.19;5113440;27;51975;-53
2023/03/10 04:54:11;;;;;;;;;1.33;1.00;;;;;-147.17;100.00;-15917.19;5110636;27;51136;-54
2023/03/10 04:56:36;;;;;;;;;1.67;1.00;;;;;-147.17;100.00;-15917.19;5114948;27;52606;-54
2023/03/10 04:59:02;;;;;;;;;1.67;1.33;;;;;-147.17;100.00;-15917.19;5113303;27;51061;-52
2023/03/10 05:01:31;;;;;;;;;3.00;1.00;;;;;-147.17;100.00;-15917.19;5094549;27;53130;-52
2023/03/10 05:04:00;;;;;;;;;0.67;0.00;;;;;-147.17;100.00;-15917.19;5113707;27;51186;-54
2023/03/10 05:06:27;;;;;;;;;1.00;1.00;;;;;-147.17;100.00;-15917.19;5113782;27;51213;-55
2023/03/10 05:08:53;;;;;;;;;1.00;1.00;;;;;-147.17;100.00;-15917.19;5114370;27;52751;-54
2023/03/10 05:11:19;;;;;;;;;0.00;0.00;;;;;-147.17;100.00;-15917.19;5087265;27;53158;-54
2023/03/10 05:13:44;;;;;;;;;1.00;1.00;;;;;-147.17;100.00;-15917.19;5113341;27;50970;-54
2023/03/10 05:16:15;;;;;;;;;1.00;1.00;;;;;-147.17;100.00;-15917.19;5110712;27;59039;-54
2023/03/10 05:18:40;;;;;;;;;1.00;0.00;;;;;-147.17;100.00;-15917.19;5094896;27;50998;-52
2023/03/10 05:21:06;;;;;;;;;0.00;0.00;;;;;-147.17;100.00;-15917.19;5109522;27;52809;-53
2023/03/10 05:23:31;;;;;;;;;1.00;0.00;;;;;-147.17;100.00;-15917.19;5109392;27;51371;-52
2023/03/10 05:25:56;;;;;;;;;0.00;0.00;;;;;-147.17;100.00;-15917.19;5112746;27;51260;-54
2023/03/10 05:28:22;;;;;;;;;1.00;0.00;;;;;-147.17;100.00;-15917.19;5107681;27;51180;-54
2023/03/10 05:30:48;;;;;;;;;0.00;0.00;;;;;-147.17;100.00;-15917.19;5111368;27;52162;-53
2023/03/10 05:33:14;;;;;;;;;1.00;0.00;;;;;-147.17;100.00;-15917.19;5111958;27;51100;-54
2023/03/10 05:35:39;;;;;;;;;0.00;0.00;;;;;-147.17;100.00;-15917.19;5111671;27;51160;-53
2023/03/10 05:38:04;;;;;;;;;0.00;0.00;;;;;-147.17;100.00;-15917.19;5114295;27;51337;-53
2023/03/10 05:40:30;;;;;;;;;0.00;0.00;;;;;-147.17;100.00;-15917.19;5113184;27;61309;-53
2023/03/10 05:42:55;;;;;;;;;0.00;0.00;;;;;-147.17;100.00;-15917.19;5113807;27;51069;-54
2023/03/10 05:45:21;;;;;;;;;0.00;0.00;;;;;-147.17;100.00;-15917.19;5103265;27;51060;-54
2023/03/10 05:47:46;;;;;;;;;1.00;1.00;;;;;-147.17;100.00;-15917.19;5109980;27;51253;-52
2023/03/10 05:50:13;;;;;;;;;1.00;0.00;;;;;-147.17;100.00;-15917.19;5092874;27;53122;-54
2023/03/10 05:52:41;;;;;;;;;0.00;0.00;;;;;-147.17;100.00;-15917.19;5110416;27;51091;-53
2023/03/10 05:55:10;;;;;;;;;0.00;0.00;;;;;-147.17;100.00;-15917.19;5112372;27;51182;-53
2023/03/10 05:57:35;;;;;;;;;1.00;0.00;;;;;-147.17;100.00;-15917.19;5107902;27;51329;-53
2023/03/10 06:00:01;;;;;;;;;0.33;0.00;;;;;-147.17;100.00;-15917.19;5112794;27;52684;-53
2023/03/10 06:02:26;;;;;;;;;0.00;0.00;;;;;-147.17;100.00;-15917.19;5110474;27;51172;-53
2023/03/10 06:04:52;;;;;;;;;0.00;0.00;;;;;-147.17;100.00;-15917.19;5107564;27;51700;-51
2023/03/10 06:07:17;;;;;;;;;0.00;0.00;;;;;-147.17;100.00;-15917.19;5115143;27;51130;-53
2023/03/10 06:09:43;;;;;;;;;0.00;0.00;;;;;-147.17;100.00;-15917.19;5113849;27;51171;-53
2023/03/10 06:12:08;;;;;;;;;0.33;0.00;;;;;-147.17;100.00;-15917.19;5096524;27;51255;-54
2023/03/10 06:14:34;;;;;;;;;1.00;1.00;;;;;-147.17;100.00;-15917.19;5112153;27;51843;-54
2023/03/10 06:16:59;;;;;;;;;1.00;0.00;;;;;-147.17;100.00;-15917.19;5106357;27;51080;-53
2023/03/10 06:19:25;;;;;;;;;0.00;0.00;;;;;-147.17;100.00;-15917.19;5086394;27;60043;-54
2023/03/10 06:21:50;;;;;;;;;0.33;0.00;;;;;-147.17;100.00;-15917.19;5109543;27;51310;-51
2023/03/10 06:24:16;;;;;;;;;0.00;0.00;;;;;-147.17;100.00;-15917.19;5112436;27;51691;-53
2023/03/10 06:26:42;;;;;;;;;0.00;0.00;;;;;-147.17;100.00;-15917.19;5113750;27;51212;-52
2023/03/10 06:29:08;;;;;;;;;0.00;0.00;;;;;-147.17;100.00;-15917.19;5108526;27;51218;-52
2023/03/10 06:31:34;;;;;;;;;1.00;0.00;;;;;-147.17;100.00;-15917.19;5109910;27;51688;-54
2023/03/10 06:33:59;;;;;;;;;1.00;0.00;;;;;-147.17;100.00;-15917.19;5092610;27;51236;-51
2023/03/10 06:36:27;;;;;;;;;0.00;0.00;;;;;-147.17;100.00;-15917.19;5110112;27;51163;-52
2023/03/10 06:38:54;;;;;;;;;0.00;0.00;;;;;-147.17;100.00;-15917.19;5111949;27;51169;-52
2023/03/10 06:41:20;;;;;;;;;0.00;0.00;;;;;-147.17;100.00;-15917.19;5112278;27;51265;-52
2023/03/10 06:43:46;;;;;;;;;1.00;1.00;;;;;-147.17;100.00;-15917.19;5113461;27;51171;-53
2023/03/10 06:46:12;;;;;;;;;0.00;0.00;;;;;-147.17;100.00;-15917.19;5112516;27;51560;-52
2023/03/10 06:48:40;;;;;;;;;0.00;0.00;;;;;-147.17;100.00;-15917.19;5103525;27;51888;-52
2023/03/10 06:51:07;;;;;;;;;0.00;0.00;;;;;-147.17;100.00;-15917.19;5110761;27;51026;-53
2023/03/10 06:53:32;;;;;;;;;0.00;0.00;;;;;-147.17;100.00;-15917.19;5106747;27;51037;-55
2023/03/10 06:56:04;;;;;;;;;0.00;0.00;;;;;-147.17;100.00;-15917.19;5112050;27;51295;-53
2023/03/10 06:58:33;;;;;;;;;1.00;0.00;;;;;-147.17;100.00;-15917.19;5089048;27;52725;-53
2023/03/10 07:00:59;;;;;;;;;0.00;0.00;;;;;-147.17;100.00;-15917.19;5109406;27;51000;-53
2023/03/10 07:03:27;;;;;;;;;0.00;0.00;;;;;-147.17;100.00;-15917.19;5108708;27;51289;-53
2023/03/10 07:05:58;;;;;;;;;0.00;0.00;;;;;-147.17;100.00;-15917.19;5109318;27;51193;-52
2023/03/10 07:08:23;;;;;;;;;0.00;0.00;;;;;-147.17;100.00;-15917.19;5112920;27;52817;-52
2023/03/10 07:10:49;;;;;;;;;1.00;1.00;;;;;-147.17;100.00;-15917.19;5108656;27;51209;-54
2023/03/10 07:13:16;;;;;;;;;1.33;0.00;;;;;-147.17;100.00;-15917.19;5106167;27;51296;-52
2023/03/10 07:15:42;;;;;;;;;0.00;0.00;;;;;-147.17;100.00;-15917.19;5108155;27;51253;-52
2023/03/10 07:18:08;;;;;;;;;2.00;0.00;;;;;-147.17;100.00;-15917.19;5107758;27;51187;-50
2023/03/10 07:20:33;;;;;;;;;0.00;0.00;;;;;-147.17;100.00;-15917.19;5105299;27;51172;-51
2023/03/10 07:22:59;;;;;;;;;1.00;0.00;;;;;-147.17;100.00;-15917.19;5110630;27;51297;-51
2023/03/10 07:25:24;;;;;;;;;0.00;0.00;;;;;-147.17;100.00;-15917.19;5111411;27;51309;-53
2023/03/10 07:27:50;;;;;;;;;0.67;0.00;;;;;-147.17;100.00;-15917.19;5109761;27;52343;-52
2023/03/10 07:30:15;;;;;;;;;0.00;0.00;;;;;-147.17;100.00;-15917.19;5113112;27;50936;-54
2023/03/10 07:32:41;;;;;;;;;0.00;0.00;;;;;-147.17;100.00;-15917.19;5111626;27;50960;-52
2023/03/10 07:35:07;;;;;;;;;3.00;3.00;;;;;-147.17;100.00;-15917.19;5107667;27;51256;-51
2023/03/10 07:37:32;;;;;;;;;1.00;1.00;;;;;-147.17;100.00;-15917.19;5104946;27;51034;-52
2023/03/10 07:39:58;;;;;;;;;1.00;0.67;;;;;-147.17;100.00;-15917.19;5100186;27;51019;-51
2023/03/10 07:42:23;;;;;;;;;0.00;0.00;;;;;-147.17;100.00;-15917.19;5107548;27;51162;-53
2023/03/10 07:44:48;;;;;;;;;0.00;0.00;;;;;-147.17;100.00;-15917.19;5109463;27;50877;-52
2023/03/10 07:47:14;;;;;;;;;2.00;1.00;;;;;-147.17;100.00;-15917.19;5112718;27;52300;-54
2023/03/10 07:49:45;;;;;;;;;1.00;1.00;;;;;-147.17;100.00;-15917.19;5111087;27;51543;-53
2023/03/10 07:52:11;;;;;;;;;1.00;1.00;;;;;-147.17;100.00;-15917.19;5102833;27;51074;-52
2023/03/10 07:54:36;;;;;;;;;0.00;0.00;;;;;-147.17;100.00;-15917.19;5105927;27;51458;-53
2023/03/10 07:57:01;;;;;;;;;2.00;2.00;;;;;-147.17;100.00;-15917.19;5106089;27;51764;-54
2023/03/10 07:59:27;;;;;;;;;0.00;0.00;;;;;-147.17;100.00;-15917.19;5083718;27;51201;-52
2023/03/10 08:01:52;;;;;;;;;1.00;0.33;;;;;-147.17;100.00;-15917.19;5110304;27;51125;-53
2023/03/10 08:04:17;;;;;;;;;0.00;0.00;;;;;-147.17;100.00;-15917.19;5101262;27;51190;-54
2023/03/10 08:06:43;;;;;;;;;0.00;0.00;;;;;-147.17;100.00;-15917.19;5108416;27;51743;-53
2023/03/10 08:09:09;;;;;;;;;0.00;0.00;;;;;-147.17;100.00;-15917.19;5116239;27;51235;-51
2023/03/10 08:11:34;;;;;;;;;0.00;0.00;;;;;-147.17;100.00;-15917.19;5112530;27;51276;-53
2023/03/10 08:13:59;;;;;;;;;1.00;0.67;;;;;-147.17;100.00;-15917.19;5109959;27;51394;-52
2023/03/10 08:16:25;;;;;;;;;0.00;0.00;;;;;-147.17;100.00;-15917.19;5099074;27;51224;-51
2023/03/10 08:18:52;;;;;;;;;0.33;0.00;;;;;-147.17;100.00;-15917.19;5112696;27;50940;-53
2023/03/10 08:21:17;;;;;;;;;0.00;0.00;;;;;-147.17;100.00;-15917.19;5108359;27;51217;-53
2023/03/10 08:23:43;;;;;;;;;0.00;0.00;;;;;-147.17;100.00;-15917.19;5105979;27;51324;-54
2023/03/10 08:26:13;;;;;;;;;0.75;0.00;;;;;-147.17;100.00;-15917.19;5091838;27;52022;-52
2023/03/10 08:28:39;;;;;;;;;0.00;0.00;;;;;-147.17;100.00;-15917.19;5113067;27;51095;-52
2023/03/10 08:31:13;;;;;;;;;0.00;0.00;;;;;-147.17;100.00;-15917.19;5115911;27;51145;-52
2023/03/10 08:33:40;;;;;;;;;0.00;0.00;;;;;-147.17;100.00;-15917.19;5115544;27;51476;-54
2023/03/10 08:36:07;;;;;;;;;0.00;0.00;;;;;-147.17;100.00;-15917.19;5115850;27;51077;-54
2023/03/10 08:38:33;;;;;;;;;0.00;0.00;;;;;-147.17;100.00;-15917.19;5114835;27;52941;-53
2023/03/10 08:41:08;;;;;;;;;1.00;0.00;;;;;-147.17;100.00;-15917.19;5115594;27;51231;-53
2023/03/10 08:43:34;;;;;;;;;0.67;0.67;;;;;-147.17;100.00;-15917.19;5115390;27;51120;-53
2023/03/10 08:45:59;;;;;;;;;0.00;0.00;;;;;-147.17;100.00;-15917.19;5115182;27;51913;-53
2023/03/10 08:48:24;;;;;;;;;0.00;0.00;;;;;-147.17;100.00;-15917.19;5115964;27;51062;-53
2023/03/10 08:50:50;;;;;;;;;0.00;0.00;;;;;-147.17;100.00;-15917.19;5115176;27;50895;-53
2023/03/10 08:53:15;;;;;;;;;1.00;1.00;;;;;-147.17;100.00;-15917.19;5116147;27;50993;-51
2023/03/10 08:55:41;;;;;;;;;3.00;3.00;;;;;-147.17;100.00;-15917.19;5113523;27;51818;-52
2023/03/10 08:58:07;;;;;;;;;0.00;0.00;;;;;-147.17;100.00;-15917.19;5115381;27;51144;-50
2023/03/10 09:00:32;;;;;;;;;0.33;0.33;;;;;-147.17;100.00;-15917.19;5113508;27;51073;-55
2023/03/10 09:02:57;;;;;;;;;0.00;0.00;;;;;-147.17;100.00;-15917.19;5105925;27;51244;-50
2023/03/10 09:05:23;;;;;;;;;0.00;0.00;;;;;-147.17;100.00;-15917.19;5109172;27;52189;-52
2023/03/10 09:07:48;;;;;;;;;1.33;1.00;;;;;-147.17;100.00;-15917.19;5098265;27;51205;-51
2023/03/10 09:10:13;;;;;;;;;1.00;1.00;;;;;-147.17;100.00;-15917.19;5113946;27;51249;-52
2023/03/10 09:12:39;;;;;;;;;2.67;0.67;;;;;-147.17;100.00;-15917.19;5103834;27;51270;-52
2023/03/10 09:15:04;;;;;;;;;1.00;1.00;;;;;-147.17;100.00;-15917.19;5113953;27;51815;-52
2023/03/10 09:17:30;;;;;;;;;0.33;0.33;;;;;-147.17;100.00;-15917.19;5114739;27;51182;-51
2023/03/10 09:19:55;;;;;;;;;0.00;0.00;;;;;-147.17;100.00;-15917.19;5115056;27;50997;-52
2023/03/10 09:22:20;;;;;;;;;1.00;1.00;;;;;-147.17;100.00;-15917.19;5101250;27;51233;-52
2023/03/10 09:24:46;;;;;;;;;1.00;0.33;;;;;-147.17;100.00;-15917.19;5114448;27;51016;-53
2023/03/10 09:27:11;;;;;;;;;1.00;1.00;;;;;-147.17;100.00;-15917.19;5109340;27;51097;-53
2023/03/10 09:29:36;;;;;;;;;0.67;0.00;;;;;-147.17;100.00;-15917.19;5108575;27;51222;-51
2023/03/10 09:32:03;;;;;;;;;0.00;0.00;;;;;-147.17;100.00;-15917.19;5111712;27;51735;-50
2023/03/10 09:34:28;;;;;;;;;2.00;1.00;;;;;-147.17;100.00;-15917.19;5069268;27;52938;-52
2023/03/10 09:36:54;;;;;;;;;1.00;0.00;;;;;-147.17;100.00;-15917.19;5103552;27;51246;-53
2023/03/10 09:39:19;;;;;;;;;0.00;0.00;;;;;-147.17;100.00;-15917.19;5117847;27;51146;-51
2023/03/10 09:42:04;;;;;;;;;1.33;1.33;;;;;-147.17;100.00;-15917.19;5115078;27;51173;-52
2023/03/10 09:44:41;;;;;;;;;0.00;0.00;;;;;-147.17;100.00;-15917.19;5113421;27;51061;-53
2023/03/10 09:47:27;;;;;;;;;1.00;1.00;;;;;-147.17;100.00;-15917.19;5112594;27;51101;-53
2023/03/10 09:50:32;;;;;;;;;4.75;4.00;;;;;-147.17;100.00;-15917.19;5113391;27;51217;-53
2023/03/10 09:53:06;;;;;;;;;2.00;1.00;;;;;-147.17;100.00;-15917.19;5115466;27;51011;-53
2023/03/10 09:55:39;;;;;;;;;1.00;1.00;;;;;-147.17;100.00;-15917.19;5109553;27;52942;-52
2023/03/10 09:58:11;;;;;;;;;0.00;0.00;;;;;-147.17;100.00;-15917.19;5104619;27;52317;-52
2023/03/10 10:00:40;;;;;;;;;1.00;1.00;;;;;-147.17;100.00;-15917.19;5103477;27;51276;-57
2023/03/10 10:03:18;;;;;;;;;2.00;0.00;;;;;-147.17;100.00;-15917.19;5114669;27;51323;-52
2023/03/10 10:05:45;;;;;;;;;3.75;3.75;;;;;-147.17;100.00;-15917.19;5112646;27;51298;-52
2023/03/10 10:08:41;;;;;;;;;1.00;1.00;;;;;-147.17;100.00;-15917.19;5109601;27;52201;-53
2023/03/10 10:11:14;;;;;;;;;1.67;1.00;;;;;-147.17;100.00;-15917.19;5113474;27;51309;-56
2023/03/10 10:13:41;;;;;;;;;4.33;2.33;;;;;-147.17;100.00;-15917.19;5114543;27;51020;-57
2023/03/10 10:16:30;;;;;;;;;5.00;4.00;;;;;-147.17;100.00;-15917.19;5109483;27;53067;-56
2023/03/10 10:19:11;;;;;;;;;1.00;1.00;;;;;-147.17;100.00;-15917.19;5080234;27;51051;-55
2023/03/10 10:21:51;;;;;;;;;0.67;0.67;;;;;-147.17;100.00;-15917.19;5095380;27;51285;-55
2023/03/10 10:24:19;;;;;;;;;2.00;1.00;;;;;-147.17;100.00;-15917.19;5112584;27;51824;-57
2023/03/10 10:26:44;;;;;;;;;2.67;2.00;;;;;-147.17;100.00;-15917.19;5113330;27;51861;-57
2023/03/10 10:29:28;;;;;;;;;0.00;0.00;;;;;-147.17;100.00;-15917.19;5113691;27;50987;-57
2023/03/10 10:32:04;;;;;;;;;2.00;2.00;;;;;-147.17;100.00;-15917.19;5104775;27;51093;-58
2023/03/10 10:34:30;;;;;;;;;2.00;2.00;;;;;-147.17;100.00;-15917.19;5108911;27;50937;-57
2023/03/10 10:36:57;;;;;;;;;2.00;1.00;;;;;-147.17;100.00;-15917.19;5102176;27;51144;-57
2023/03/10 10:39:42;;;;;;;;;1.00;0.67;;;;;-147.17;100.00;-15917.19;5109833;27;51123;-58
2023/03/10 10:42:32;;;;;;;;;1.00;1.00;;;;;-147.17;100.00;-15917.19;5113894;27;51258;-59
2023/03/10 10:45:06;;;;;;;;;1.00;1.00;;;;;-147.17;100.00;-15917.19;5113599;27;51343;-58
2023/03/10 10:47:46;;;;;;;;;1.00;1.00;;;;;-147.17;100.00;-15917.19;5109258;27;51161;-57
2023/03/10 10:50:28;;;;;;;;;1.50;1.50;;;;;-147.17;100.00;-15917.19;5105569;27;51436;-57
2023/03/10 10:53:18;;;;;;;;;1.00;1.00;;;;;-147.17;100.00;-15917.19;5111253;27;50998;-58
2023/03/10 10:55:45;;;;;;;;;1.00;1.00;;;;;-147.17;100.00;-15917.19;5113338;27;51060;-59
2023/03/10 10:58:25;;;;;;;;;2.00;2.00;;;;;-147.17;100.00;-15917.19;5110921;27;51128;-55
2023/03/10 11:00:59;;;;;;;;;1.33;1.00;;;;;-147.17;100.00;-15917.19;5112731;27;51086;-54
2023/03/10 11:03:39;;;;;;;;;2.00;2.00;;;;;-147.17;100.00;-15917.19;5104371;27;51142;-55
2023/03/10 11:06:21;;;;;;;;;2.00;1.00;;;;;-147.17;100.00;-15917.19;5112123;27;51105;-56